createdAt,value
2022-11-02T00:01:20.442Z,5.00
2022-11-02T00:03:22.442Z,5.00
2022-11-02T00:05:24.808Z,5.10
2022-11-02T00:07:26.642Z,5.20
2022-11-02T00:09:28.486Z,5.10
2022-11-02T00:11:30.602Z,4.90
2022-11-02T00:13:32.377Z,4.70
2022-11-02T00:15:36.072Z,4.70
2022-11-02T00:17:39.682Z,4.70
2022-11-02T00:19:41.591Z,4.70
2022-11-02T00:21:43.649Z,4.70
2022-11-02T00:23:46.107Z,4.60
2022-11-02T00:25:50.335Z,4.70
2022-11-02T00:27:52.255Z,4.80
2022-11-02T00:29:54.290Z,4.70
2022-11-02T00:31:58.433Z,4.70
2022-11-02T00:34:00.282Z,4.70
2022-11-02T00:36:02.174Z,4.70
2022-11-02T00:38:04.879Z,4.70
2022-11-02T00:40:07.543Z,4.60
2022-11-02T00:42:09.509Z,4.50
2022-11-02T00:44:11.350Z,4.40
2022-11-02T00:46:13.223Z,4.30
2022-11-02T00:48:15.109Z,4.20
2022-11-02T00:50:17.231Z,4.10
2022-11-02T00:52:18.958Z,4.10
2022-11-02T00:54:24.517Z,4.10
2022-11-02T00:56:29.412Z,4.10
2022-11-02T00:58:31.235Z,4.10
2022-11-02T01:00:33.107Z,4.00
2022-11-02T01:02:35.220Z,3.90
2022-11-02T01:04:37.196Z,3.90
2022-11-02T01:06:39.081Z,3.80
2022-11-02T01:08:42.543Z,3.80
2022-11-02T01:10:48.112Z,3.70
2022-11-02T01:12:50.452Z,3.70
2022-11-02T01:14:52.340Z,3.60
2022-11-02T01:16:54.252Z,3.60
2022-11-02T01:18:57.331Z,3.60
2022-11-02T01:20:59.968Z,3.60
2022-11-02T01:23:01.793Z,3.50
2022-11-02T01:25:04.439Z,3.50
2022-11-02T01:27:06.268Z,3.40
2022-11-02T01:29:08.169Z,3.30
2022-11-02T01:31:11.184Z,3.30
2022-11-02T01:33:13.048Z,3.30
2022-11-02T01:35:14.933Z,3.40
2022-11-02T01:37:16.850Z,3.40
2022-11-02T01:39:18.698Z,3.40
2022-11-02T01:41:20.557Z,3.50
2022-11-02T01:43:26.433Z,3.50
2022-11-02T01:45:28.457Z,3.60
2022-11-02T01:47:32.217Z,3.60
2022-11-02T01:49:37.912Z,3.70
2022-11-02T01:51:42.167Z,3.60
2022-11-02T01:53:49.441Z,3.70
2022-11-02T01:55:51.689Z,3.60
2022-11-02T01:57:57.880Z,3.50
2022-11-02T02:00:07.791Z,3.50
2022-11-02T02:02:16.928Z,3.40
2022-11-02T02:04:20.038Z,3.40
2022-11-02T02:06:22.183Z,3.40
2022-11-02T02:08:26.980Z,3.40
2022-11-02T02:10:28.825Z,3.40
2022-11-02T02:12:32.153Z,3.40
2022-11-02T02:14:35.158Z,3.40
2022-11-02T02:17:07.890Z,3.40
2022-11-02T02:19:28.601Z,3.40
2022-11-02T02:21:33.463Z,3.50
2022-11-02T02:23:58.540Z,3.40
2022-11-02T02:26:12.284Z,3.50
2022-11-02T02:28:33.724Z,3.60
2022-11-02T02:30:41.300Z,3.60
2022-11-02T02:33:08.231Z,3.60
2022-11-02T02:35:16.562Z,3.70
2022-11-02T02:37:27.955Z,3.80
2022-11-02T02:39:48.794Z,3.80
2022-11-02T02:42:09.851Z,3.80
2022-11-02T02:44:17.852Z,3.90
2022-11-02T02:46:25.752Z,4.00
2022-11-02T02:48:27.748Z,3.90
2022-11-02T02:50:45.129Z,3.80
2022-11-02T02:52:50.772Z,3.70
2022-11-02T02:54:57.117Z,3.70
2022-11-02T02:57:06.833Z,3.70
2022-11-02T02:59:13.559Z,3.80
2022-11-02T03:01:17.153Z,3.80
2022-11-02T03:03:24.026Z,3.80
2022-11-02T03:05:31.563Z,3.90
2022-11-02T03:07:34.516Z,3.90
2022-11-02T03:10:17.645Z,3.90
2022-11-02T03:12:40.772Z,4.00
2022-11-02T03:15:05.410Z,4.00
2022-11-02T03:17:20.529Z,4.00
2022-11-02T03:19:42.764Z,4.00
2022-11-02T03:21:45.594Z,4.00
2022-11-02T03:24:00.665Z,3.90
2022-11-02T03:26:05.517Z,3.90
2022-11-02T03:28:13.281Z,3.90
2022-11-02T03:30:19.873Z,3.90
2022-11-02T03:32:29.287Z,3.80
2022-11-02T03:34:39.223Z,3.80
2022-11-02T03:37:06.110Z,3.80
2022-11-02T03:39:11.593Z,3.80
2022-11-02T03:41:14.948Z,3.80
2022-11-02T03:43:18.501Z,3.90
2022-11-02T03:45:23.750Z,3.90
2022-11-02T03:47:30.988Z,3.80
2022-11-02T03:49:34.152Z,3.80
2022-11-02T03:51:42.938Z,3.80
2022-11-02T03:53:52.811Z,3.80
2022-11-02T03:56:01.064Z,3.70
2022-11-02T03:58:03.552Z,3.80
2022-11-02T04:00:26.782Z,3.80
2022-11-02T04:02:30.110Z,3.80
2022-11-02T04:04:32.201Z,3.80
2022-11-02T04:06:35.213Z,3.80
2022-11-02T04:08:40.669Z,3.70
2022-11-02T04:11:02.680Z,3.70
2022-11-02T04:13:23.283Z,3.80
2022-11-02T04:15:25.084Z,3.80
2022-11-02T04:17:45.862Z,3.80
2022-11-02T04:19:50.078Z,3.90
2022-11-02T04:22:10.634Z,3.90
2022-11-02T04:24:31.231Z,3.90
2022-11-02T04:26:33.246Z,4.00
2022-11-02T04:28:35.929Z,4.10
2022-11-02T04:30:37.797Z,4.20
2022-11-02T04:32:59.188Z,4.20
2022-11-02T04:39:53.817Z,4.20
2022-11-02T04:44:15.966Z,4.20
2022-11-02T04:46:17.919Z,4.30
2022-11-02T04:48:19.989Z,4.30
2022-11-02T04:50:21.755Z,4.40
2022-11-02T04:52:23.652Z,4.40
2022-11-02T04:54:26.102Z,4.40
2022-11-02T04:56:29.601Z,4.40
2022-11-02T04:58:31.435Z,4.40
2022-11-02T05:00:33.274Z,4.50
2022-11-02T05:02:35.322Z,4.50
2022-11-02T05:04:37.127Z,4.60
2022-11-02T05:06:38.951Z,4.50
2022-11-02T05:08:40.985Z,4.60
2022-11-02T05:10:42.845Z,4.60
2022-11-02T05:12:44.664Z,4.60
2022-11-02T05:14:46.558Z,4.60
2022-11-02T05:16:48.389Z,4.60
2022-11-02T05:18:50.205Z,4.60
2022-11-02T05:20:53.886Z,4.60
2022-11-02T05:22:55.739Z,4.60
2022-11-02T05:24:57.612Z,4.60
2022-11-02T05:27:00.537Z,4.60
2022-11-02T05:29:02.717Z,4.60
2022-11-02T05:31:05.504Z,4.70
2022-11-02T05:33:07.565Z,4.70
2022-11-02T05:35:09.991Z,4.90
2022-11-02T05:37:11.852Z,5.00
2022-11-02T05:39:13.844Z,5.10
2022-11-02T05:41:15.693Z,5.10
2022-11-02T05:43:17.751Z,5.10
2022-11-02T05:45:22.144Z,5.20
2022-11-02T05:47:26.471Z,5.30
2022-11-02T05:49:28.307Z,5.30
2022-11-02T05:51:30.235Z,5.30
2022-11-02T05:53:34.143Z,5.40
2022-11-02T05:55:36.086Z,5.40
2022-11-02T05:57:38.147Z,5.50
2022-11-02T05:59:40.310Z,5.60
2022-11-02T06:01:42.855Z,5.60
2022-11-02T06:03:48.995Z,5.60
2022-11-02T06:05:58.416Z,5.80
2022-11-02T06:08:03.442Z,5.80
2022-11-02T06:10:05.911Z,5.90
2022-11-02T06:12:08.074Z,6.00
2022-11-02T06:14:09.864Z,6.20
2022-11-02T06:16:19.985Z,6.30
2022-11-02T06:18:24.389Z,6.40
2022-11-02T06:20:26.234Z,6.60
2022-11-02T06:22:28.099Z,6.70
2022-11-02T06:24:30.012Z,6.80
2022-11-02T06:26:31.862Z,6.90
2022-11-02T06:28:33.759Z,7.00
2022-11-02T06:30:35.691Z,7.10
2022-11-02T06:32:37.555Z,7.20
2022-11-02T06:34:39.411Z,7.40
2022-11-02T06:36:41.288Z,7.50
2022-11-02T06:38:44.159Z,7.50
2022-11-02T06:41:07.717Z,7.50
2022-11-02T06:43:17.942Z,7.70
2022-11-02T06:45:19.943Z,7.80
2022-11-02T06:47:21.917Z,7.90
2022-11-02T06:49:23.787Z,8.10
2022-11-02T06:51:25.616Z,8.30
2022-11-02T06:53:27.480Z,8.20
2022-11-02T06:55:29.323Z,8.10
2022-11-02T06:57:36.977Z,8.10
2022-11-02T06:59:38.823Z,8.00
2022-11-02T07:01:40.927Z,8.00
2022-11-02T07:03:42.907Z,8.00
2022-11-02T07:05:53.544Z,8.00
2022-11-02T07:07:55.700Z,8.10
2022-11-02T07:09:57.425Z,8.10
2022-11-02T07:11:59.336Z,8.20
2022-11-02T07:14:01.239Z,8.20
2022-11-02T07:16:03.146Z,8.40
2022-11-02T07:18:06.344Z,8.40
2022-11-02T07:20:10.714Z,8.60
2022-11-02T07:22:12.561Z,8.70
2022-11-02T07:24:14.510Z,8.90
2022-11-02T07:26:16.329Z,9.00
2022-11-02T07:28:18.352Z,9.10
2022-11-02T07:30:21.987Z,9.20
2022-11-02T07:32:24.096Z,9.20
2022-11-02T07:34:25.833Z,9.50
2022-11-02T07:36:27.700Z,9.60
2022-11-02T07:38:29.553Z,9.60
2022-11-02T07:40:33.070Z,9.80
2022-11-02T07:42:35.475Z,9.80
2022-11-02T07:44:37.327Z,9.80
2022-11-02T07:46:39.143Z,9.90
2022-11-02T07:48:41.038Z,10.10
2022-11-02T07:50:42.889Z,10.20
2022-11-02T07:52:50.195Z,10.30
2022-11-02T07:54:52.313Z,10.40
2022-11-02T07:56:54.156Z,10.50
2022-11-02T07:58:55.996Z,10.40
2022-11-02T08:01:00.031Z,10.60
2022-11-02T08:03:04.161Z,10.70
2022-11-02T08:05:06.727Z,10.70
2022-11-02T08:07:09.545Z,10.70
2022-11-02T08:09:11.488Z,10.70
2022-11-02T08:11:13.400Z,10.70
2022-11-02T08:13:17.792Z,10.80
2022-11-02T08:15:19.648Z,10.80
2022-11-02T08:17:21.906Z,10.90
2022-11-02T08:19:23.827Z,11.00
2022-11-02T08:21:26.404Z,11.00
2022-11-02T08:23:28.341Z,11.20
2022-11-02T08:25:30.342Z,11.10
2022-11-02T08:27:32.898Z,11.10
2022-11-02T08:29:36.835Z,11.10
2022-11-02T08:31:38.814Z,11.20
2022-11-02T08:33:40.781Z,11.40
2022-11-02T08:35:44.733Z,11.50
2022-11-02T08:37:53.934Z,11.60
2022-11-02T08:39:55.884Z,11.60
2022-11-02T08:41:57.700Z,11.60
2022-11-02T08:43:59.811Z,11.60
2022-11-02T08:46:14.971Z,11.40
2022-11-02T08:48:17.855Z,11.40
2022-11-02T08:50:19.873Z,11.50
2022-11-02T08:52:21.722Z,11.40
2022-11-02T08:54:23.574Z,11.40
2022-11-02T08:56:25.558Z,11.30
2022-11-02T08:58:27.614Z,11.40
2022-11-02T09:00:30.599Z,11.60
2022-11-02T09:02:32.566Z,11.80
2022-11-02T09:04:34.472Z,11.30
2022-11-02T09:06:36.386Z,11.30
2022-11-02T09:08:38.253Z,11.60
2022-11-02T09:10:40.330Z,11.70
2022-11-02T09:12:42.039Z,12.00
2022-11-02T09:14:45.053Z,12.20
2022-11-02T09:16:46.909Z,12.30
2022-11-02T09:18:48.734Z,12.40
2022-11-02T09:20:51.520Z,12.20
2022-11-02T09:22:53.586Z,11.80
2022-11-02T09:24:55.410Z,12.00
2022-11-02T09:26:57.330Z,12.00
2022-11-02T09:28:59.197Z,12.10
2022-11-02T09:31:01.090Z,11.90
2022-11-02T09:33:05.715Z,11.90
2022-11-02T09:35:10.911Z,11.90
2022-11-02T09:37:12.830Z,11.90
2022-11-02T09:39:14.807Z,11.90
2022-11-02T09:41:47.478Z,11.90
2022-11-02T09:44:10.920Z,11.90
2022-11-02T09:46:27.246Z,12.10
2022-11-02T09:48:35.447Z,12.20
2022-11-02T09:50:50.255Z,12.30
2022-11-02T09:52:58.540Z,12.40
2022-11-02T09:55:05.169Z,12.60
2022-11-02T09:57:13.141Z,12.60
2022-11-02T09:59:20.591Z,12.70
2022-11-02T10:01:33.076Z,12.40
2022-11-02T10:04:00.499Z,12.30
2022-11-02T10:06:15.888Z,12.10
2022-11-02T10:08:42.150Z,12.20
2022-11-02T10:11:07.746Z,12.60
2022-11-02T10:13:40.740Z,13.00
2022-11-02T10:16:20.979Z,13.30
2022-11-02T10:18:28.491Z,13.30
2022-11-02T10:20:44.709Z,13.20
2022-11-02T10:22:47.780Z,13.40
2022-11-02T10:24:50.918Z,13.00
2022-11-02T10:26:56.679Z,13.10
2022-11-02T10:29:01.902Z,13.30
2022-11-02T10:31:04.664Z,13.10
2022-11-02T10:33:18.118Z,12.90
2022-11-02T10:35:41.159Z,13.00
2022-11-02T10:38:04.497Z,13.40
2022-11-02T10:40:21.009Z,13.50
2022-11-02T10:43:00.725Z,13.60
2022-11-02T10:45:33.014Z,13.40
2022-11-02T10:47:51.812Z,13.20
2022-11-02T10:50:24.047Z,13.50
2022-11-02T10:52:29.000Z,13.70
2022-11-02T10:54:34.488Z,13.70
2022-11-02T10:56:36.735Z,13.90
2022-11-02T10:58:44.016Z,14.00
2022-11-02T11:00:47.813Z,13.60
2022-11-02T11:03:22.745Z,13.60
2022-11-02T11:05:24.693Z,13.70
2022-11-02T11:07:28.010Z,13.70
2022-11-02T11:09:47.014Z,13.70
2022-11-02T11:12:04.764Z,13.80
2022-11-02T11:16:54.085Z,13.90
2022-11-02T11:21:18.666Z,14.10
2022-11-02T11:23:27.037Z,14.00
2022-11-02T11:25:28.951Z,14.00
2022-11-02T11:27:30.807Z,13.90
2022-11-02T11:29:35.494Z,13.90
2022-11-02T11:31:37.432Z,14.00
2022-11-02T11:33:56.000Z,13.90
2022-11-02T11:35:57.904Z,13.80
2022-11-02T11:38:20.146Z,13.60
2022-11-02T11:40:22.812Z,13.50
2022-11-02T11:42:28.913Z,13.60
2022-11-02T11:44:31.718Z,13.50
2022-11-02T11:46:46.781Z,13.60
2022-11-02T11:48:52.907Z,13.60
2022-11-02T11:50:54.871Z,13.70
2022-11-02T11:53:31.683Z,13.80
2022-11-02T11:55:33.789Z,13.80
2022-11-02T11:59:43.180Z,14.00
2022-11-02T12:01:45.115Z,14.00
2022-11-02T12:03:57.107Z,13.90
2022-11-02T12:06:14.027Z,13.90
2022-11-02T12:08:40.173Z,14.00
2022-11-02T12:10:47.960Z,14.20
2022-11-02T12:13:01.656Z,14.30
2022-11-02T12:15:28.840Z,14.20
2022-11-02T12:18:03.804Z,14.00
2022-11-02T12:20:29.776Z,13.90
2022-11-02T12:22:50.062Z,14.10
2022-11-02T12:25:06.863Z,13.90
2022-11-02T12:27:29.453Z,13.90
2022-11-02T12:29:33.858Z,14.00
2022-11-02T12:31:38.770Z,14.10
2022-11-02T12:33:50.648Z,14.30
2022-11-02T12:36:01.237Z,14.20
2022-11-02T12:38:36.905Z,14.20
2022-11-02T12:41:09.670Z,14.40
2022-11-02T12:43:14.453Z,14.30
2022-11-02T12:45:29.948Z,14.10
2022-11-02T12:47:57.733Z,14.00
2022-11-02T12:50:11.556Z,14.00
2022-11-02T12:52:22.753Z,13.90
2022-11-02T12:54:41.722Z,13.80
2022-11-02T12:56:52.730Z,13.80
2022-11-02T12:58:55.723Z,13.70
2022-11-02T13:01:21.470Z,13.70
2022-11-02T13:03:29.191Z,13.60
2022-11-02T13:05:38.725Z,13.60
2022-11-02T13:08:10.378Z,13.60
2022-11-02T13:10:23.911Z,13.60
2022-11-02T13:12:26.918Z,13.60
2022-11-02T13:14:38.256Z,13.60
2022-11-02T13:16:50.613Z,13.50
2022-11-02T13:18:54.122Z,13.50
2022-11-02T13:21:03.045Z,13.50
2022-11-02T13:23:14.434Z,13.40
2022-11-02T13:25:20.927Z,13.40
2022-11-02T13:27:37.278Z,13.40
2022-11-02T13:29:48.849Z,13.40
2022-11-02T13:32:19.164Z,13.30
2022-11-02T13:34:35.997Z,13.30
2022-11-02T13:36:39.317Z,13.30
2022-11-02T13:39:02.096Z,13.30
2022-11-02T13:41:28.191Z,13.20
2022-11-02T13:43:33.003Z,13.20
2022-11-02T13:45:40.885Z,13.20
2022-11-02T13:47:45.696Z,13.20
2022-11-02T13:49:53.239Z,13.10
2022-11-02T13:52:20.644Z,13.10
2022-11-02T13:54:36.738Z,13.00
2022-11-02T13:56:39.037Z,13.10
2022-11-02T13:58:49.146Z,13.00
2022-11-02T14:00:52.862Z,13.00
2022-11-02T14:02:57.202Z,12.90
2022-11-02T14:05:00.083Z,12.80
2022-11-02T14:07:05.390Z,12.80
2022-11-02T14:09:10.558Z,12.70
2022-11-02T14:11:15.449Z,12.60
2022-11-02T14:13:17.681Z,12.50
2022-11-02T14:15:19.496Z,12.40
2022-11-02T14:17:21.386Z,12.40
2022-11-02T14:19:48.620Z,12.30
2022-11-02T14:21:59.479Z,12.30
2022-11-02T14:24:01.440Z,12.20
2022-11-02T14:26:03.505Z,12.20
2022-11-02T14:28:25.834Z,12.20
2022-11-02T14:30:44.072Z,12.10
2022-11-02T14:33:06.931Z,12.10
2022-11-02T14:35:37.846Z,12.00
2022-11-02T14:38:16.161Z,12.00
2022-11-02T14:40:26.130Z,11.90
2022-11-02T14:42:41.410Z,11.90
2022-11-02T14:45:15.757Z,11.90
2022-11-02T14:47:19.421Z,11.70
2022-11-02T14:49:27.119Z,11.80
2022-11-02T14:51:33.995Z,11.70
2022-11-02T14:53:37.479Z,11.60
2022-11-02T14:55:39.788Z,11.60
2022-11-02T14:57:44.842Z,11.70
2022-11-02T14:59:50.673Z,11.60
2022-11-02T15:01:59.548Z,11.70
2022-11-02T15:04:07.926Z,11.60
2022-11-02T15:06:15.035Z,11.50
2022-11-02T15:08:24.261Z,11.30
2022-11-02T15:10:32.153Z,11.40
2022-11-02T15:12:40.914Z,11.40
2022-11-02T15:14:42.741Z,11.30
2022-11-02T15:16:45.543Z,11.30
2022-11-02T15:18:48.267Z,11.20
2022-11-02T15:21:25.991Z,11.20
2022-11-02T15:23:31.565Z,11.10
2022-11-02T15:25:41.475Z,11.00
2022-11-02T15:27:44.981Z,10.90
2022-11-02T15:29:48.255Z,10.90
2022-11-02T15:31:56.055Z,10.90
2022-11-02T15:34:05.636Z,10.90
2022-11-02T15:36:18.077Z,10.90
2022-11-02T15:38:32.535Z,10.90
2022-11-02T15:40:50.803Z,10.90
2022-11-02T15:42:59.141Z,10.70
2022-11-02T15:45:57.813Z,10.80
2022-11-02T15:48:34.867Z,10.70
2022-11-02T15:50:58.179Z,10.60
2022-11-02T15:53:30.288Z,10.50
2022-11-02T15:55:41.164Z,10.40
2022-11-02T15:58:15.256Z,10.30
2022-11-02T16:00:21.848Z,10.20
2022-11-02T16:02:40.046Z,10.00
2022-11-02T16:04:47.661Z,10.00
2022-11-02T16:06:49.696Z,9.90
2022-11-02T16:08:51.677Z,9.80
2022-11-02T16:11:04.886Z,9.90
2022-11-02T16:13:14.590Z,9.80
2022-11-02T16:15:19.212Z,9.80
2022-11-02T16:17:22.502Z,9.70
2022-11-02T16:19:24.341Z,9.60
2022-11-02T16:21:27.369Z,9.60
2022-11-02T16:23:31.704Z,9.60
2022-11-02T16:25:39.681Z,9.60
2022-11-02T16:27:43.346Z,9.70
2022-11-02T16:29:48.007Z,9.70
2022-11-02T16:31:49.989Z,9.70
2022-11-02T16:33:59.974Z,9.70
2022-11-02T16:36:02.312Z,9.60
2022-11-02T16:38:04.636Z,9.70
2022-11-02T16:40:07.528Z,9.50
2022-11-02T16:42:22.891Z,9.50
2022-11-02T16:44:27.699Z,9.50
2022-11-02T16:46:32.208Z,9.40
2022-11-02T16:48:34.191Z,9.30
2022-11-02T16:50:36.122Z,9.30
2022-11-02T16:52:38.382Z,9.20
2022-11-02T16:54:42.098Z,9.20
2022-11-02T16:56:49.072Z,9.10
2022-11-02T16:58:52.786Z,9.10
2022-11-02T17:01:05.222Z,9.00
2022-11-02T17:03:10.108Z,9.00
2022-11-02T17:05:22.063Z,8.90
2022-11-02T17:07:58.188Z,8.90
2022-11-02T17:10:02.781Z,8.80
2022-11-02T17:12:14.718Z,8.80
2022-11-02T17:14:19.545Z,8.70
2022-11-02T17:16:21.805Z,8.70
2022-11-02T17:18:27.542Z,8.60
2022-11-02T17:20:29.558Z,8.70
2022-11-02T17:22:36.861Z,8.70
2022-11-02T17:24:39.074Z,8.70
2022-11-02T17:26:42.014Z,8.70
2022-11-02T17:28:46.513Z,8.60
2022-11-02T17:30:48.755Z,8.60
2022-11-02T17:32:50.690Z,8.60
2022-11-02T17:34:57.275Z,8.50
2022-11-02T17:36:59.236Z,8.40
2022-11-02T17:39:04.908Z,8.40
2022-11-02T17:41:25.688Z,8.50
2022-11-02T17:43:28.100Z,8.50
2022-11-02T17:45:31.459Z,8.40
2022-11-02T17:47:33.297Z,8.40
2022-11-02T17:49:35.332Z,8.20
2022-11-02T17:51:37.445Z,8.30
2022-11-02T17:53:39.348Z,8.30
2022-11-02T17:55:41.618Z,8.20
2022-11-02T17:57:43.645Z,8.30
2022-11-02T17:59:45.520Z,8.30
2022-11-02T18:01:47.624Z,8.40
2022-11-02T18:03:49.669Z,8.40
2022-11-02T18:05:55.790Z,8.50
2022-11-02T18:08:00.839Z,8.40
2022-11-02T18:10:02.795Z,8.40
2022-11-02T18:12:04.816Z,8.50
2022-11-02T18:14:06.814Z,8.50
2022-11-02T18:16:08.694Z,8.40
2022-11-02T18:18:11.114Z,8.30
2022-11-02T18:20:14.059Z,8.30
2022-11-02T18:22:16.039Z,8.20
2022-11-02T18:24:17.993Z,8.20
2022-11-02T18:26:19.938Z,8.20
2022-11-02T18:28:21.780Z,8.30
2022-11-02T18:30:28.233Z,8.10
2022-11-02T18:32:30.185Z,8.00
2022-11-02T18:34:32.027Z,7.90
2022-11-02T18:36:36.858Z,7.80
2022-11-02T18:38:38.814Z,7.70
2022-11-02T18:40:40.730Z,7.70
2022-11-02T18:42:43.843Z,7.70
2022-11-02T18:44:45.735Z,7.70
2022-11-02T18:46:48.198Z,7.60
2022-11-02T18:48:50.367Z,7.70
2022-11-02T18:50:52.171Z,7.70
2022-11-02T18:52:54.028Z,7.70
2022-11-02T18:54:56.590Z,7.60
2022-11-02T18:56:58.481Z,7.60
2022-11-02T18:59:00.417Z,7.60
2022-11-02T19:01:10.213Z,7.50
2022-11-02T19:03:12.270Z,7.50
2022-11-02T19:05:32.901Z,7.50
2022-11-02T19:07:53.416Z,7.50
2022-11-02T19:09:57.433Z,7.50
2022-11-02T19:12:07.694Z,7.60
2022-11-02T19:14:09.590Z,7.60
2022-11-02T19:16:11.671Z,7.50
2022-11-02T19:18:13.422Z,7.50
2022-11-02T19:20:15.310Z,7.40
2022-11-02T19:22:25.864Z,7.40
2022-11-02T19:24:27.735Z,7.30
2022-11-02T19:26:29.867Z,7.30
2022-11-02T19:28:31.746Z,7.40
2022-11-02T19:30:33.658Z,7.30
2022-11-02T19:32:35.496Z,7.20
2022-11-02T19:34:38.287Z,7.20
2022-11-02T19:36:40.640Z,7.30
2022-11-02T19:38:42.468Z,7.30
2022-11-02T19:40:44.342Z,7.30
2022-11-02T19:42:48.749Z,7.20
2022-11-02T19:44:50.663Z,7.30
2022-11-02T19:46:52.715Z,7.20
2022-11-02T19:48:55.893Z,7.20
2022-11-02T19:51:07.917Z,7.20
2022-11-02T19:53:09.962Z,7.20
2022-11-02T19:55:11.703Z,7.20
2022-11-02T19:57:13.616Z,7.20
2022-11-02T19:59:15.571Z,7.20
2022-11-02T20:01:29.257Z,7.30
2022-11-02T20:03:31.524Z,7.30
2022-11-02T20:05:33.445Z,7.30
2022-11-02T20:07:35.301Z,7.40
2022-11-02T20:09:39.432Z,7.40
2022-11-02T20:11:44.739Z,7.50
2022-11-02T20:13:48.209Z,7.60
2022-11-02T20:15:50.125Z,7.60
2022-11-02T20:18:17.866Z,7.70
2022-11-02T20:20:13.774Z,7.60
2022-11-02T20:22:15.691Z,7.60
2022-11-02T20:24:17.582Z,7.70
2022-11-02T20:26:23.713Z,7.60
2022-11-02T20:28:25.540Z,7.60
2022-11-02T20:30:27.561Z,7.60
2022-11-02T20:32:29.607Z,7.60
2022-11-02T20:34:31.645Z,7.60
2022-11-02T20:36:34.679Z,7.60
2022-11-02T20:38:37.066Z,7.50
2022-11-02T20:40:41.334Z,7.50
2022-11-02T20:42:43.433Z,7.50
2022-11-02T20:44:49.190Z,7.50
2022-11-02T20:46:53.288Z,7.60
2022-11-02T20:48:57.011Z,7.60
2022-11-02T20:50:59.310Z,7.60
2022-11-02T20:53:01.198Z,7.70
2022-11-02T20:55:03.201Z,7.70
2022-11-02T20:57:06.942Z,7.70
2022-11-02T20:59:08.777Z,7.70
2022-11-02T21:01:11.775Z,7.70
2022-11-02T21:03:14.836Z,7.70
2022-11-02T21:05:17.222Z,7.80
2022-11-02T21:07:19.289Z,7.80
2022-11-02T21:09:21.155Z,7.80
2022-11-02T21:11:41.413Z,7.80
2022-11-02T21:13:52.213Z,7.80
2022-11-02T21:15:54.380Z,7.70
2022-11-02T21:17:56.109Z,7.70
2022-11-02T21:20:14.105Z,7.70
2022-11-02T21:22:19.870Z,7.60
2022-11-02T21:24:21.970Z,7.60
2022-11-02T21:26:24.329Z,7.60
2022-11-02T21:28:34.307Z,7.50
2022-11-02T21:30:36.201Z,7.50
2022-11-02T21:32:38.105Z,7.50
2022-11-02T21:34:40.000Z,7.50
2022-11-02T21:36:41.877Z,7.50
2022-11-02T21:38:48.681Z,7.50
2022-11-02T21:40:50.890Z,7.60
2022-11-02T21:42:52.767Z,7.60
2022-11-02T21:44:54.641Z,7.70
2022-11-02T21:46:57.251Z,7.60
2022-11-02T21:48:59.232Z,7.80
2022-11-02T21:51:06.214Z,7.70
2022-11-02T21:53:08.351Z,7.70
2022-11-02T21:55:10.683Z,7.70
2022-11-02T21:57:12.501Z,7.70
2022-11-02T21:59:14.568Z,7.70
2022-11-02T22:01:36.583Z,7.70
2022-11-02T22:03:38.609Z,7.70
2022-11-02T22:05:59.472Z,7.70
2022-11-02T22:08:20.165Z,7.70
2022-11-02T22:10:22.205Z,7.70
2022-11-02T22:12:42.671Z,7.70
2022-11-02T22:14:44.965Z,7.70
2022-11-02T22:16:46.942Z,7.70
2022-11-02T22:18:49.212Z,7.70
2022-11-02T22:20:55.505Z,7.60
2022-11-02T22:22:57.374Z,7.60
2022-11-02T22:24:59.219Z,7.60
2022-11-02T22:27:01.198Z,7.60
2022-11-02T22:29:04.474Z,7.60
2022-11-02T22:31:10.743Z,7.60
2022-11-02T22:33:12.634Z,7.70
2022-11-02T22:35:14.616Z,7.70
2022-11-02T22:37:35.036Z,7.70
2022-11-02T22:39:36.850Z,7.70
2022-11-02T22:41:45.118Z,7.70
2022-11-02T22:43:52.560Z,7.70
2022-11-02T22:46:05.991Z,7.70
2022-11-02T22:48:07.902Z,7.70
2022-11-02T22:50:09.824Z,7.60
2022-11-02T22:52:11.669Z,7.60
2022-11-02T22:54:16.694Z,7.60
2022-11-02T22:56:20.928Z,7.50
2022-11-02T22:58:22.774Z,7.50
2022-11-02T23:00:24.725Z,7.50
2022-11-02T23:02:26.582Z,7.50
2022-11-02T23:04:28.466Z,7.50
2022-11-02T23:06:30.469Z,7.50
2022-11-02T23:08:39.745Z,7.50
2022-11-02T23:11:00.110Z,7.40
2022-11-02T23:13:02.006Z,7.40
2022-11-02T23:15:04.097Z,7.40
2022-11-02T23:17:05.806Z,7.40
2022-11-02T23:19:33.078Z,7.40
2022-11-02T23:21:35.068Z,7.40
2022-11-02T23:24:03.186Z,7.40
2022-11-02T23:26:05.256Z,7.40
2022-11-02T23:28:25.697Z,7.40
2022-11-02T23:30:54.069Z,7.40
2022-11-02T23:32:55.935Z,7.50
2022-11-02T23:35:20.608Z,7.40
2022-11-02T23:37:22.436Z,7.50
2022-11-02T23:39:42.913Z,7.50
2022-11-02T23:41:44.828Z,7.50
2022-11-02T23:43:47.688Z,7.40
2022-11-02T23:45:49.575Z,7.40
2022-11-02T23:47:57.255Z,7.30
2022-11-02T23:49:59.200Z,7.40
2022-11-02T23:52:19.419Z,7.40
2022-11-02T23:54:40.168Z,7.30
2022-11-02T23:56:45.632Z,7.40
2022-11-02T23:58:48.030Z,7.40
